Terminal Aerodrome Forecast
Issued by NWS Twin Cities, MN

Home | Current Version | Previous Version | Graphics & Text | Print | Product List | Glossary On
Versions: 1 2 3 4 5 6 7 8 9 10 11 12 13 14 15 16 17
253
FTUS43 KMPX 300956 AAB
TAFEAU
TAF AMD
KEAU 300956Z 3010/3106 VRB04KT P6SM SCT050
      TEMPO 3010/3011 1SM BR BKN030=

USA.gov is the U.S. government's official web portal to all federal, state and local government web resources and services.